Time,TemperatureF,DewpointF,PressureIn,WindDirection,WindDirectionDegrees,WindSpeedMPH,WindSpeedGustMPH,Humidity,HourlyPrecipIn,Conditions,Clouds,dailyrainin,SoftwareType,DateUTC
2013-01-19 00:00:00,29.0,-99.9,-100.00,WSW,245,16.0,19.0,-999,-99.99,,,-99.99,,2013-01-19 07:00:00,
2013-01-19 00:33:00,29.0,-99.9,-100.00,WSW,245,16.0,19.0,-999,-99.99,,,-99.99,,2013-01-19 07:33:00,
2013-01-19 00:43:00,29.0,-99.9,-100.00,WSW,245,16.0,19.0,-999,-99.99,,,-99.99,,2013-01-19 07:43:00,
2013-01-19 00:53:00,29.0,-99.9,-100.00,WSW,245,16.0,19.0,-999,-99.99,,,-99.99,,2013-01-19 07:53:00,
2013-01-19 01:00:00,25.0,-99.9,-100.00,SW,225,13.0,13.0,-999,-99.99,,,-99.99,,2013-01-19 08:00:00,
2013-01-19 01:33:00,25.0,-99.9,-100.00,SW,225,13.0,13.0,-999,-99.99,,,-99.99,,2013-01-19 08:33:00,
2013-01-19 01:43:00,25.0,-99.9,-100.00,SW,225,13.0,13.0,-999,-99.99,,,-99.99,,2013-01-19 08:43:00,
2013-01-19 01:53:00,25.0,-99.9,-100.00,SW,225,13.0,13.0,-999,-99.99,,,-99.99,,2013-01-19 08:53:00,
2013-01-19 02:00:00,18.0,-99.9,-100.00,ESE,105,6.0,6.0,-999,-99.99,,,-99.99,,2013-01-19 09:00:00,
2013-01-19 02:33:00,18.0,-99.9,-100.00,ESE,105,6.0,6.0,-999,-99.99,,,-99.99,,2013-01-19 09:33:00,
2013-01-19 02:43:00,18.0,-99.9,-100.00,ESE,105,6.0,6.0,-999,-99.99,,,-99.99,,2013-01-19 09:43:00,
2013-01-19 02:53:00,18.0,-99.9,-100.00,ESE,105,6.0,6.0,-999,-99.99,,,-99.99,,2013-01-19 09:53:00,
2013-01-19 03:00:00,29.0,-99.9,-100.00,West,260,14.0,18.0,-999,-99.99,,,-99.99,,2013-01-19 10:00:00,
2013-01-19 03:33:00,29.0,-99.9,-100.00,West,260,14.0,18.0,-999,-99.99,,,-99.99,,2013-01-19 10:33:00,
2013-01-19 03:43:00,29.0,-99.9,-100.00,West,260,14.0,18.0,-999,-99.99,,,-99.99,,2013-01-19 10:43:00,
2013-01-19 03:53:00,29.0,-99.9,-100.00,West,260,14.0,18.0,-999,-99.99,,,-99.99,,2013-01-19 10:53:00,
2013-01-19 04:00:00,29.0,-99.9,-100.00,West,276,13.0,18.0,-999,-99.99,,,-99.99,,2013-01-19 11:00:00,
2013-01-19 05:00:00,26.0,-99.9,-100.00,West,276,15.0,17.0,-999,-99.99,,,-99.99,,2013-01-19 12:00:00,
2013-01-19 05:49:00,26.0,-99.9,-100.00,West,276,15.0,17.0,-999,-99.99,,,-99.99,,2013-01-19 12:49:00,
2013-01-19 06:00:00,21.0,-99.9,-100.00,NNE,21,2.0,7.0,-999,-99.99,,,-99.99,,2013-01-19 13:00:00,
2013-01-19 06:43:00,21.0,-99.9,-100.00,NNE,21,2.0,7.0,-999,-99.99,,,-99.99,,2013-01-19 13:43:00,
2013-01-19 06:54:00,21.0,-99.9,-100.00,NNE,21,2.0,7.0,-999,-99.99,,,-99.99,,2013-01-19 13:54:00,
2013-01-19 07:00:00,18.0,-99.9,-100.00,ENE,71,4.0,6.0,-999,-99.99,,,-99.99,,2013-01-19 14:00:00,
2013-01-19 07:44:00,18.0,-99.9,-100.00,ENE,71,4.0,6.0,-999,-99.99,,,-99.99,,2013-01-19 14:44:00,
2013-01-19 07:54:00,18.0,-99.9,-100.00,ENE,71,4.0,6.0,-999,-99.99,,,-99.99,,2013-01-19 14:54:00,
2013-01-19 08:00:00,13.0,-99.9,-100.00,East,89,8.0,9.0,-999,-99.99,,,-99.99,,2013-01-19 15:00:00,
2013-01-19 08:34:00,13.0,-99.9,-100.00,East,89,8.0,9.0,-999,-99.99,,,-99.99,,2013-01-19 15:34:00,
2013-01-19 08:43:00,13.0,-99.9,-100.00,East,89,8.0,9.0,-999,-99.99,,,-99.99,,2013-01-19 15:43:00,
2013-01-19 08:54:00,13.0,-99.9,-100.00,East,89,8.0,9.0,-999,-99.99,,,-99.99,,2013-01-19 15:54:00,
2013-01-19 09:00:00,19.0,-99.9,-100.00,East,85,5.0,7.0,-999,-99.99,,,-99.99,,2013-01-19 16:00:00,
2013-01-19 09:34:00,19.0,-99.9,-100.00,East,85,5.0,7.0,-999,-99.99,,,-99.99,,2013-01-19 16:34:00,
2013-01-19 09:43:00,19.0,-99.9,-100.00,East,85,5.0,7.0,-999,-99.99,,,-99.99,,2013-01-19 16:43:00,
2013-01-19 09:54:00,19.0,-99.9,-100.00,East,85,5.0,7.0,-999,-99.99,,,-99.99,,2013-01-19 16:54:00,
2013-01-19 10:00:00,24.0,-99.9,-100.00,East,90,6.0,6.0,-999,-99.99,,,-99.99,,2013-01-19 17:00:00,
2013-01-19 10:39:00,24.0,-99.9,-100.00,East,90,6.0,6.0,-999,-99.99,,,-99.99,,2013-01-19 17:39:00,
2013-01-19 10:50:00,24.0,-99.9,-100.00,East,90,6.0,6.0,-999,-99.99,,,-99.99,,2013-01-19 17:50:00,
2013-01-19 10:57:00,24.0,-99.9,-100.00,East,90,6.0,6.0,-999,-99.99,,,-99.99,,2013-01-19 17:57:00,
2013-01-19 11:00:00,32.0,-99.9,-100.00,SE,141,3.0,4.0,-999,-99.99,,,-99.99,,2013-01-19 18:00:00,
2013-01-19 11:39:00,32.0,-99.9,-100.00,SE,141,3.0,4.0,-999,-99.99,,,-99.99,,2013-01-19 18:39:00,
2013-01-19 11:49:00,32.0,-99.9,-100.00,SE,141,3.0,4.0,-999,-99.99,,,-99.99,,2013-01-19 18:49:00,
2013-01-19 12:00:00,36.0,-99.9,-100.00,South,182,4.0,6.0,-999,-99.99,,,-99.99,,2013-01-19 19:00:00,
2013-01-19 12:41:00,36.0,-99.9,-100.00,South,182,4.0,6.0,-999,-99.99,,,-99.99,,2013-01-19 19:41:00,
2013-01-19 12:51:00,36.0,-99.9,-100.00,South,182,4.0,6.0,-999,-99.99,,,-99.99,,2013-01-19 19:51:00,
2013-01-19 12:59:00,36.0,-99.9,-100.00,South,182,4.0,6.0,-999,-99.99,,,-99.99,,2013-01-19 19:59:00,
2013-01-19 13:00:00,38.0,-99.9,-100.00,NE,45,6.0,6.0,-999,-99.99,,,-99.99,,2013-01-19 20:00:00,
2013-01-19 13:40:00,38.0,-99.9,-100.00,NE,45,6.0,6.0,-999,-99.99,,,-99.99,,2013-01-19 20:40:00,
2013-01-19 13:52:00,38.0,-99.9,-100.00,NE,45,6.0,6.0,-999,-99.99,,,-99.99,,2013-01-19 20:52:00,
2013-01-19 14:00:00,43.0,-99.9,-100.00,East,96,4.0,4.0,-999,-99.99,,,-99.99,,2013-01-19 21:00:00,
2013-01-19 15:00:00,39.0,-99.9,-100.00,SW,214,2.0,11.0,-999,-99.99,,,-99.99,,2013-01-19 22:00:00,
2013-01-19 15:37:00,39.0,-99.9,-100.00,SW,214,2.0,11.0,-999,-99.99,,,-99.99,,2013-01-19 22:37:00,
2013-01-19 15:50:00,39.0,-99.9,-100.00,SW,214,2.0,11.0,-999,-99.99,,,-99.99,,2013-01-19 22:50:00,
2013-01-19 15:59:00,39.0,-99.9,-100.00,SW,214,2.0,11.0,-999,-99.99,,,-99.99,,2013-01-19 22:59:00,
2013-01-19 16:00:00,37.0,-99.9,-100.00,West,276,9.0,14.0,-999,-99.99,,,-99.99,,2013-01-19 23:00:00,
2013-01-19 16:35:00,37.0,-99.9,-100.00,West,276,9.0,14.0,-999,-99.99,,,-99.99,,2013-01-19 23:35:00,
2013-01-19 16:54:00,37.0,-99.9,-100.00,West,276,9.0,14.0,-999,-99.99,,,-99.99,,2013-01-19 23:54:00,
2013-01-19 17:00:00,38.0,-99.9,-100.00,NNE,20,0.0,4.0,-999,-99.99,,,-99.99,,2013-01-20 00:00:00,
2013-01-19 17:49:00,38.0,-99.9,-100.00,NNE,20,0.0,4.0,-999,-99.99,,,-99.99,,2013-01-20 00:49:00,
2013-01-19 17:59:00,38.0,-99.9,-100.00,NNE,20,0.0,4.0,-999,-99.99,,,-99.99,,2013-01-20 00:59:00,
2013-01-19 18:00:00,32.0,-99.9,-100.00,WNW,290,9.0,12.0,-999,-99.99,,,-99.99,,2013-01-20 01:00:00,
2013-01-19 18:40:00,32.0,-99.9,-100.00,WNW,290,9.0,12.0,-999,-99.99,,,-99.99,,2013-01-20 01:40:00,
2013-01-19 19:00:00,26.0,-99.9,-100.00,West,279,6.0,9.0,-999,-99.99,,,-99.99,,2013-01-20 02:00:00,
2013-01-19 19:39:00,26.0,-99.9,-100.00,West,279,6.0,9.0,-999,-99.99,,,-99.99,,2013-01-20 02:39:00,
2013-01-19 19:47:00,26.0,-99.9,-100.00,West,279,6.0,9.0,-999,-99.99,,,-99.99,,2013-01-20 02:47:00,
2013-01-19 20:00:00,29.0,-99.9,-100.00,SSW,213,4.0,4.0,-999,-99.99,,,-99.99,,2013-01-20 03:00:00,
2013-01-19 20:40:00,29.0,-99.9,-100.00,SSW,213,4.0,4.0,-999,-99.99,,,-99.99,,2013-01-20 03:40:00,
2013-01-19 20:48:00,29.0,-99.9,-100.00,SSW,213,4.0,4.0,-999,-99.99,,,-99.99,,2013-01-20 03:48:00,
2013-01-19 20:59:00,29.0,-99.9,-100.00,SSW,213,4.0,4.0,-999,-99.99,,,-99.99,,2013-01-20 03:59:00,
2013-01-19 21:00:00,16.0,-99.9,-100.00,ENE,77,7.0,7.0,-999,-99.99,,,-99.99,,2013-01-20 04:00:00,
2013-01-19 21:46:00,16.0,-99.9,-100.00,ENE,77,7.0,7.0,-999,-99.99,,,-99.99,,2013-01-20 04:46:00,
2013-01-19 22:00:00,14.0,-99.9,-100.00,East,86,6.0,7.0,-999,-99.99,,,-99.99,,2013-01-20 05:00:00,
2013-01-19 22:33:00,14.0,-99.9,-100.00,East,86,6.0,7.0,-999,-99.99,,,-99.99,,2013-01-20 05:33:00,
2013-01-19 22:43:00,14.0,-99.9,-100.00,East,86,6.0,7.0,-999,-99.99,,,-99.99,,2013-01-20 05:43:00,
2013-01-19 22:53:00,14.0,-99.9,-100.00,East,86,6.0,7.0,-999,-99.99,,,-99.99,,2013-01-20 05:53:00,
2013-01-19 23:00:00,14.0,-99.9,-100.00,ESE,102,7.0,8.0,-999,-99.99,,,-99.99,,2013-01-20 06:00:00,
2013-01-19 23:34:00,14.0,-99.9,-100.00,ESE,102,7.0,8.0,-999,-99.99,,,-99.99,,2013-01-20 06:34:00,
2013-01-19 23:43:00,14.0,-99.9,-100.00,ESE,102,7.0,8.0,-999,-99.99,,,-99.99,,2013-01-20 06:43:00,
2013-01-19 23:53:00,14.0,-99.9,-100.00,ESE,102,7.0,8.0,-999,-99.99,,,-99.99,,2013-01-20 06:53:00,